createdAt,value
2017-08-18T00:01:38.222Z,6.20
2017-08-18T00:04:05.662Z,5.20
2017-08-18T00:06:33.874Z,5.63
2017-08-18T00:09:01.331Z,6.70
2017-08-18T00:11:28.775Z,5.60
2017-08-18T00:13:56.503Z,5.17
2017-08-18T00:16:24.724Z,6.23
2017-08-18T00:18:52.161Z,6.00
2017-08-18T00:21:19.636Z,5.10
2017-08-18T00:23:47.058Z,5.57
2017-08-18T00:26:14.503Z,5.47
2017-08-18T00:28:42.706Z,6.43
2017-08-18T00:31:10.138Z,6.20
2017-08-18T00:33:38.351Z,6.73
2017-08-18T00:36:05.801Z,5.77
2017-08-18T00:38:33.239Z,5.83
2017-08-18T00:41:00.689Z,5.57
2017-08-18T00:43:28.891Z,5.80
2017-08-18T00:45:56.347Z,6.20
2017-08-18T00:48:23.778Z,6.00
2017-08-18T00:50:51.218Z,5.73
2017-08-18T00:53:19.433Z,6.60
2017-08-18T00:55:46.903Z,5.97
2017-08-18T00:58:14.341Z,5.60
2017-08-18T01:00:41.774Z,5.70
2017-08-18T01:03:09.219Z,6.47
2017-08-18T01:05:37.427Z,6.00
2017-08-18T01:08:04.863Z,5.63
2017-08-18T01:10:32.299Z,6.77
2017-08-18T01:13:00.518Z,6.83
2017-08-18T01:15:27.952Z,7.50
2017-08-18T01:17:55.395Z,5.97
2017-08-18T01:20:23.604Z,7.67
2017-08-18T01:22:51.063Z,6.50
2017-08-18T01:25:18.510Z,6.80
2017-08-18T01:27:45.942Z,5.80
2017-08-18T01:30:13.379Z,6.00
2017-08-18T01:32:41.583Z,6.13
2017-08-18T01:35:09.019Z,6.90
2017-08-18T01:37:37.231Z,6.30
2017-08-18T01:40:04.671Z,7.10
2017-08-18T01:42:32.118Z,6.23
2017-08-18T01:44:59.555Z,6.13
2017-08-18T01:47:27.767Z,7.00
2017-08-18T01:49:55.206Z,6.47
2017-08-18T01:52:22.723Z,6.60
2017-08-18T01:54:50.158Z,6.20
2017-08-18T01:57:17.593Z,5.73
2017-08-18T01:59:45.028Z,5.87
2017-08-18T02:02:12.463Z,6.53
2017-08-18T02:04:40.670Z,5.50
2017-08-18T02:07:08.106Z,5.77
2017-08-18T02:09:36.315Z,6.23
2017-08-18T02:12:03.742Z,6.23
2017-08-18T02:14:31.191Z,6.07
2017-08-18T02:16:59.399Z,6.63
2017-08-18T02:19:26.843Z,6.60
2017-08-18T02:21:54.274Z,6.40
2017-08-18T02:24:22.499Z,6.43
2017-08-18T02:26:49.940Z,6.30
2017-08-18T02:29:17.371Z,5.93
2017-08-18T02:31:44.815Z,6.43
2017-08-18T02:34:13.026Z,6.57
2017-08-18T02:36:40.471Z,7.70
2017-08-18T02:39:07.911Z,7.87
2017-08-18T02:41:35.354Z,6.40
2017-08-18T02:44:03.552Z,6.20
2017-08-18T02:46:30.996Z,6.70
2017-08-18T02:48:58.440Z,6.00
2017-08-18T02:51:26.757Z,6.70
2017-08-18T02:53:54.178Z,7.30
2017-08-18T02:56:22.386Z,6.53
2017-08-18T02:58:49.839Z,6.00
2017-08-18T03:01:17.294Z,6.97
2017-08-18T03:03:44.712Z,6.60
2017-08-18T03:06:12.931Z,6.60
2017-08-18T03:08:40.358Z,6.60
2017-08-18T03:11:07.815Z,6.17
2017-08-18T03:13:35.262Z,6.80
2017-08-18T03:16:03.471Z,6.90
2017-08-18T03:18:30.910Z,6.20
2017-08-18T03:20:58.346Z,6.83
2017-08-18T03:23:26.559Z,6.40
2017-08-18T03:25:53.994Z,6.63
2017-08-18T03:28:58.410Z,7.27
2017-08-18T03:31:25.842Z,6.20
2017-08-18T03:33:54.058Z,6.40
2017-08-18T03:36:21.490Z,6.70
2017-08-18T03:38:48.939Z,6.10
2017-08-18T03:41:16.384Z,6.70
2017-08-18T03:43:44.588Z,6.20
2017-08-18T03:46:12.026Z,6.93
2017-08-18T03:48:40.240Z,7.70
2017-08-18T03:51:07.680Z,7.17
2017-08-18T03:53:35.119Z,6.40
2017-08-18T03:56:02.554Z,7.03
2017-08-18T03:58:30.780Z,6.60
2017-08-18T04:00:58.216Z,7.57
2017-08-18T04:03:25.662Z,6.87
2017-08-18T04:05:53.106Z,6.70
2017-08-18T04:08:21.335Z,7.57
2017-08-18T04:10:48.777Z,7.37
2017-08-18T04:13:16.214Z,6.90
2017-08-18T04:15:43.663Z,6.83
2017-08-18T04:18:11.094Z,6.90
2017-08-18T04:20:39.316Z,8.70
2017-08-18T04:23:06.769Z,6.80
2017-08-18T04:25:34.206Z,7.30
2017-08-18T04:28:01.642Z,6.80
2017-08-18T04:30:29.859Z,7.23
2017-08-18T04:32:57.303Z,6.30
2017-08-18T04:35:24.744Z,7.47
2017-08-18T04:37:52.174Z,8.03
2017-08-18T04:40:20.395Z,7.27
2017-08-18T04:42:47.822Z,7.90
2017-08-18T04:45:15.267Z,7.23
2017-08-18T04:47:43.470Z,6.70
2017-08-18T04:50:10.927Z,6.63
2017-08-18T04:52:38.365Z,6.87
2017-08-18T04:55:06.566Z,6.40
2017-08-18T04:57:34.005Z,6.70
2017-08-18T05:00:01.433Z,5.57
2017-08-18T05:02:29.657Z,5.30
2017-08-18T05:04:57.094Z,6.03
2017-08-18T05:07:24.543Z,6.63
2017-08-18T05:09:52.742Z,6.40
2017-08-18T05:12:20.199Z,7.20
2017-08-18T05:14:47.630Z,6.60
2017-08-18T05:17:15.080Z,6.53
2017-08-18T05:19:43.285Z,6.40
2017-08-18T05:22:10.737Z,6.60
2017-08-18T05:24:38.163Z,6.10
2017-08-18T05:27:06.377Z,6.17
2017-08-18T05:29:33.821Z,7.30
2017-08-18T05:32:01.302Z,6.97
2017-08-18T05:34:28.738Z,7.40
2017-08-18T05:36:56.195Z,7.33
2017-08-18T05:39:23.635Z,8.93
2017-08-18T05:41:51.084Z,7.57
2017-08-18T05:44:18.518Z,9.40
2017-08-18T05:46:46.739Z,8.30
2017-08-18T05:49:14.246Z,8.13
2017-08-18T05:51:42.470Z,8.30
2017-08-18T05:54:09.933Z,10.00
2017-08-18T05:56:37.384Z,9.77
2017-08-18T05:59:04.839Z,10.10
2017-08-18T06:01:32.299Z,10.37
2017-08-18T06:03:59.750Z,9.97
2017-08-18T06:06:27.196Z,10.43
2017-08-18T06:08:54.642Z,9.83
2017-08-18T06:11:22.088Z,9.33
2017-08-18T06:13:50.303Z,9.77
2017-08-18T06:16:17.750Z,9.27
2017-08-18T06:18:45.207Z,9.80
2017-08-18T06:21:12.651Z,15.03
2017-08-18T06:23:40.100Z,9.00
2017-08-18T06:26:07.539Z,9.43
2017-08-18T06:28:35.751Z,7.33
2017-08-18T06:31:03.186Z,9.13
2017-08-18T06:33:30.643Z,8.93
2017-08-18T06:35:58.075Z,9.63
2017-08-18T06:38:26.292Z,9.63
2017-08-18T06:40:53.747Z,12.77
2017-08-18T06:43:21.203Z,11.43
2017-08-18T06:45:48.652Z,10.30
2017-08-18T06:48:16.119Z,10.77
2017-08-18T06:50:43.588Z,13.87
2017-08-18T06:53:11.031Z,9.20
2017-08-18T06:55:38.483Z,9.10
2017-08-18T06:58:05.923Z,8.37
2017-08-18T07:00:33.366Z,8.53
2017-08-18T07:03:00.817Z,9.23
2017-08-18T07:05:29.027Z,8.00
2017-08-18T07:07:56.466Z,6.43
2017-08-18T07:10:23.911Z,8.10
2017-08-18T07:12:51.352Z,9.00
2017-08-18T07:15:19.570Z,14.47
2017-08-18T07:17:47.018Z,7.73
2017-08-18T07:20:14.466Z,8.50
2017-08-18T07:22:41.907Z,9.70
2017-08-18T07:25:09.352Z,8.10
2017-08-18T07:27:37.566Z,5.57
2017-08-18T07:30:05.023Z,7.40
2017-08-18T07:32:32.580Z,8.60
2017-08-18T07:35:00.010Z,8.70
2017-08-18T07:37:27.455Z,12.53
2017-08-18T07:39:55.674Z,10.13
2017-08-18T07:42:23.124Z,10.73
2017-08-18T07:44:50.580Z,8.00
2017-08-18T07:47:18.041Z,5.73
2017-08-18T07:49:45.490Z,9.40
2017-08-18T07:52:12.931Z,5.40
2017-08-18T07:54:40.386Z,5.50
2017-08-18T07:57:07.833Z,7.90
2017-08-18T07:59:35.287Z,11.50
2017-08-18T08:02:02.735Z,7.20
2017-08-18T08:04:30.947Z,6.20
2017-08-18T08:06:58.406Z,9.20
2017-08-18T08:09:25.859Z,8.00
2017-08-18T08:11:53.418Z,9.00
2017-08-18T08:14:20.875Z,12.43
2017-08-18T08:16:48.332Z,10.63
2017-08-18T08:19:15.771Z,9.90
2017-08-18T08:21:43.231Z,7.03
2017-08-18T08:24:10.671Z,12.33
2017-08-18T08:26:38.119Z,7.10
2017-08-18T08:29:06.326Z,5.97
2017-08-18T08:31:33.783Z,8.23
2017-08-18T08:34:01.235Z,5.03
2017-08-18T08:36:28.663Z,8.90
2017-08-18T08:38:56.873Z,6.07
2017-08-18T08:41:24.343Z,5.73
2017-08-18T08:43:51.796Z,3.97
2017-08-18T08:46:19.237Z,3.93
2017-08-18T08:48:46.696Z,5.33
2017-08-18T08:51:14.146Z,4.10
2017-08-18T08:53:41.594Z,5.00
2017-08-18T08:56:09.039Z,5.10
2017-08-18T08:58:36.482Z,11.43
2017-08-18T09:01:03.929Z,6.83
2017-08-18T09:03:32.148Z,5.73
2017-08-18T09:05:59.586Z,3.13
2017-08-18T09:08:27.031Z,3.37
2017-08-18T09:10:54.468Z,3.77
2017-08-18T09:13:22.691Z,3.63
2017-08-18T09:15:50.454Z,3.93
2017-08-18T09:18:17.911Z,5.37
2017-08-18T09:20:45.361Z,4.50
2017-08-18T09:23:12.790Z,4.10
2017-08-18T09:25:40.234Z,2.93
2017-08-18T09:28:07.675Z,3.23
2017-08-18T09:30:35.132Z,5.10
2017-08-18T09:33:02.571Z,6.10
2017-08-18T09:35:30.027Z,5.37
2017-08-18T09:37:57.458Z,6.90
2017-08-18T09:40:24.914Z,3.10
2017-08-18T09:42:52.360Z,3.97
2017-08-18T09:45:19.803Z,6.53
2017-08-18T09:47:47.244Z,2.73
2017-08-18T09:50:27.275Z,4.53
2017-08-18T09:56:04.198Z,3.50
2017-08-18T09:58:43.535Z,3.97
2017-08-18T10:01:11.758Z,5.17
2017-08-18T10:03:39.198Z,4.20
2017-08-18T10:06:06.652Z,5.33
2017-08-18T10:08:34.098Z,3.50
2017-08-18T10:11:01.540Z,3.50
2017-08-18T10:13:28.983Z,7.03
2017-08-18T10:15:56.428Z,3.10
2017-08-18T10:18:24.626Z,3.93
2017-08-18T10:20:52.095Z,4.80
2017-08-18T10:23:19.531Z,4.60
2017-08-18T10:25:46.966Z,5.03
2017-08-18T10:28:15.197Z,5.30
2017-08-18T10:30:42.634Z,3.90
2017-08-18T10:33:10.079Z,3.80
2017-08-18T10:35:37.515Z,4.97
2017-08-18T10:38:05.735Z,5.07
2017-08-18T10:40:33.179Z,4.10
2017-08-18T10:43:00.627Z,6.60
2017-08-18T10:45:28.067Z,4.17
2017-08-18T10:47:56.279Z,4.63
2017-08-18T10:50:23.710Z,6.90
2017-08-18T10:52:51.158Z,3.93
2017-08-18T10:55:19.363Z,5.90
2017-08-18T10:57:46.818Z,3.10
2017-08-18T11:00:14.269Z,4.67
2017-08-18T11:02:41.703Z,5.07
2017-08-18T11:05:09.153Z,5.10
2017-08-18T11:07:37.361Z,4.90
2017-08-18T11:10:04.814Z,8.97
2017-08-18T11:12:32.257Z,19.00
2017-08-18T11:14:59.696Z,5.57
2017-08-18T11:17:27.135Z,5.10
2017-08-18T11:19:54.579Z,8.50
2017-08-18T11:22:22.023Z,4.73
2017-08-18T11:24:49.466Z,4.00
2017-08-18T11:27:16.912Z,3.27
2017-08-18T11:29:44.370Z,4.93
2017-08-18T11:32:11.816Z,4.10
2017-08-18T11:34:39.269Z,3.83
2017-08-18T11:37:06.707Z,3.67
2017-08-18T11:39:34.151Z,5.53
2017-08-18T11:42:01.592Z,3.57
2017-08-18T11:44:29.040Z,7.27
2017-08-18T11:46:56.470Z,3.70
2017-08-18T11:49:23.927Z,5.87
2017-08-18T11:51:51.372Z,4.50
2017-08-18T11:54:18.827Z,6.33
2017-08-18T11:56:46.262Z,3.90
2017-08-18T11:59:13.753Z,4.30
2017-08-18T12:01:41.195Z,3.40
2017-08-18T12:04:08.640Z,3.63
2017-08-18T12:06:36.095Z,4.33
2017-08-18T12:09:03.540Z,4.00
2017-08-18T12:11:30.991Z,3.93
2017-08-18T12:13:59.199Z,3.47
2017-08-18T12:16:26.652Z,3.70
2017-08-18T12:18:54.086Z,5.60
2017-08-18T12:21:21.534Z,4.50
2017-08-18T12:23:48.976Z,5.60
2017-08-18T12:26:16.435Z,3.70
2017-08-18T12:28:44.648Z,4.00
2017-08-18T12:31:12.098Z,6.20
2017-08-18T12:33:39.530Z,3.87
2017-08-18T12:36:07.015Z,3.80
2017-08-18T12:38:34.439Z,4.23
2017-08-18T12:41:01.879Z,4.07
2017-08-18T12:43:30.135Z,3.80
2017-08-18T12:45:57.592Z,4.47
2017-08-18T12:48:25.055Z,4.70
2017-08-18T12:50:53.271Z,4.27
2017-08-18T12:53:20.715Z,4.00
2017-08-18T12:55:48.159Z,5.33
2017-08-18T12:58:16.380Z,4.33
2017-08-18T13:00:43.814Z,3.93
2017-08-18T13:03:11.263Z,4.23
2017-08-18T13:05:38.703Z,3.97
2017-08-18T13:08:06.922Z,3.90
2017-08-18T13:10:34.362Z,4.27
2017-08-18T13:13:01.832Z,3.43
2017-08-18T13:15:29.300Z,4.63
2017-08-18T13:17:56.743Z,6.27
2017-08-18T13:20:24.200Z,3.97
2017-08-18T13:22:51.643Z,5.20
2017-08-18T13:25:19.099Z,4.33
2017-08-18T13:27:46.539Z,4.57
2017-08-18T13:30:13.982Z,4.03
2017-08-18T13:32:42.200Z,8.50
2017-08-18T13:35:09.655Z,3.70
2017-08-18T13:37:37.124Z,4.13
2017-08-18T13:40:04.574Z,3.80
2017-08-18T13:42:32.011Z,8.43
2017-08-18T13:44:59.480Z,7.90
2017-08-18T13:47:26.922Z,4.30
2017-08-18T13:49:54.370Z,3.83
2017-08-18T13:52:21.802Z,5.93
2017-08-18T13:54:50.031Z,4.10
2017-08-18T13:57:17.480Z,6.23
2017-08-18T13:59:44.935Z,5.10
2017-08-18T14:02:12.384Z,8.23
2017-08-18T14:04:40.030Z,4.87
2017-08-18T14:07:07.475Z,5.60
2017-08-18T14:09:35.677Z,4.57
2017-08-18T14:12:03.136Z,4.60
2017-08-18T14:14:30.574Z,6.90
2017-08-18T14:16:58.027Z,5.77
2017-08-18T14:19:25.467Z,4.07
2017-08-18T14:21:53.683Z,6.33
2017-08-18T14:24:21.136Z,5.03
2017-08-18T14:26:54.320Z,7.13
2017-08-18T14:29:21.774Z,4.00
2017-08-18T14:31:49.219Z,8.17
2017-08-18T14:34:16.667Z,5.00
2017-08-18T14:36:44.119Z,6.33
2017-08-18T14:39:11.563Z,3.63
2017-08-18T14:41:39.021Z,4.27
2017-08-18T14:44:07.235Z,5.00
2017-08-18T14:46:35.695Z,7.77
2017-08-18T14:49:03.708Z,5.87
2017-08-18T14:51:31.263Z,5.73
2017-08-18T14:53:58.711Z,4.23
2017-08-18T14:56:26.179Z,4.30
2017-08-18T14:58:53.624Z,4.10
2017-08-18T15:01:21.084Z,6.07
2017-08-18T15:03:48.528Z,5.10
2017-08-18T15:06:15.982Z,3.63
2017-08-18T15:08:43.423Z,3.80
2017-08-18T15:11:10.878Z,4.60
2017-08-18T15:13:38.349Z,6.10
2017-08-18T15:16:05.807Z,5.27
2017-08-18T15:18:33.364Z,3.90
2017-08-18T15:21:00.801Z,4.27
2017-08-18T15:23:28.249Z,4.20
2017-08-18T15:25:55.696Z,5.10
2017-08-18T15:28:23.919Z,4.30
2017-08-18T15:30:51.363Z,3.30
2017-08-18T15:33:18.818Z,8.20
2017-08-18T15:35:46.272Z,6.43
2017-08-18T15:38:13.731Z,3.43
2017-08-18T15:40:41.163Z,4.30
2017-08-18T15:43:08.617Z,3.50
2017-08-18T15:45:36.063Z,3.77
2017-08-18T15:48:04.275Z,6.07
2017-08-18T15:50:31.735Z,10.70
2017-08-18T15:52:59.191Z,10.33
2017-08-18T15:55:26.644Z,5.33
2017-08-18T15:57:54.107Z,7.50
2017-08-18T16:00:21.555Z,3.80
2017-08-18T16:02:49.524Z,5.33
2017-08-18T16:05:16.968Z,3.77
2017-08-18T16:07:44.405Z,3.20
2017-08-18T16:10:11.865Z,3.53
2017-08-18T16:12:39.311Z,4.10
2017-08-18T16:15:06.755Z,4.33
2017-08-18T16:17:34.996Z,3.40
2017-08-18T16:20:02.454Z,3.60
2017-08-18T16:22:29.891Z,3.30
2017-08-18T16:24:57.347Z,1.27
2017-08-18T16:27:24.797Z,3.07
2017-08-18T16:29:52.246Z,1.20
2017-08-18T16:32:19.678Z,2.63
2017-08-18T16:34:47.891Z,2.20
2017-08-18T16:37:15.326Z,2.43
2017-08-18T16:39:42.779Z,2.80
2017-08-18T16:42:10.214Z,1.13
2017-08-18T16:44:38.431Z,3.67
2017-08-18T16:47:05.888Z,1.00
2017-08-18T16:49:33.332Z,1.13
2017-08-18T16:52:00.776Z,0.80
2017-08-18T16:54:28.206Z,1.17
2017-08-18T16:56:56.428Z,2.07
2017-08-18T16:59:23.867Z,1.37
2017-08-18T17:01:51.315Z,1.13
2017-08-18T17:04:18.781Z,1.00
2017-08-18T17:06:46.227Z,1.57
2017-08-18T17:09:13.682Z,3.17
2017-08-18T17:11:41.882Z,0.93
2017-08-18T17:14:09.327Z,0.90
2017-08-18T17:16:36.779Z,1.60
2017-08-18T17:19:04.223Z,0.60
2017-08-18T17:21:31.662Z,0.83
2017-08-18T17:23:59.095Z,0.70
2017-08-18T17:26:26.547Z,1.23
2017-08-18T17:28:53.999Z,0.63
2017-08-18T17:31:21.444Z,1.40
2017-08-18T17:33:48.887Z,0.77
2017-08-18T17:36:16.331Z,0.40
2017-08-18T17:38:43.770Z,0.57
2017-08-18T17:41:11.206Z,1.40
2017-08-18T17:43:39.418Z,0.73
2017-08-18T17:46:06.858Z,0.40
2017-08-18T17:48:34.300Z,0.73
2017-08-18T17:51:02.515Z,1.43
2017-08-18T17:53:29.972Z,0.53
2017-08-18T17:55:57.427Z,0.20
2017-08-18T17:58:24.884Z,0.40
2017-08-18T18:00:52.313Z,0.40
2017-08-18T18:03:19.763Z,0.40
2017-08-18T18:05:47.972Z,1.03
2017-08-18T18:08:15.426Z,0.60
2017-08-18T18:10:42.871Z,0.33
2017-08-18T18:13:10.310Z,0.33
2017-08-18T18:15:37.764Z,0.40
2017-08-18T18:18:05.225Z,0.20
2017-08-18T18:20:32.671Z,0.93
2017-08-18T18:23:00.883Z,0.20
2017-08-18T18:25:28.339Z,0.20
2017-08-18T18:27:55.777Z,0.20
2017-08-18T18:30:23.219Z,0.40
2017-08-18T18:32:50.659Z,0.30
2017-08-18T18:35:18.882Z,0.43
2017-08-18T18:37:46.323Z,0.20
2017-08-18T18:40:13.766Z,0.20
2017-08-18T18:42:41.202Z,0.20
2017-08-18T18:45:09.425Z,0.20
2017-08-18T18:47:36.861Z,0.27
2017-08-18T18:50:04.306Z,0.40
2017-08-18T18:52:31.743Z,1.80
2017-08-18T18:54:59.967Z,0.50
2017-08-18T18:57:27.425Z,0.30
2017-08-18T18:59:54.875Z,0.50
2017-08-18T19:02:22.310Z,0.20
2017-08-18T19:04:49.755Z,0.20
2017-08-18T19:07:17.246Z,0.30
2017-08-18T19:09:44.683Z,0.97
2017-08-18T19:12:12.127Z,0.67
2017-08-18T19:14:40.330Z,0.30
2017-08-18T19:17:07.775Z,0.30
2017-08-18T19:19:35.223Z,0.67
2017-08-18T19:22:02.702Z,1.50
2017-08-18T19:24:30.135Z,0.30
2017-08-18T19:26:57.584Z,0.30
2017-08-18T19:29:25.024Z,0.20
2017-08-18T19:31:53.248Z,0.30
2017-08-18T19:34:20.699Z,1.13
2017-08-18T19:36:48.156Z,0.20
2017-08-18T19:39:15.599Z,0.30
2017-08-18T19:41:43.047Z,1.70
2017-08-18T19:44:10.492Z,0.50
2017-08-18T19:46:37.935Z,0.60
2017-08-18T19:49:06.152Z,0.40
2017-08-18T19:51:33.591Z,0.40
2017-08-18T19:54:01.023Z,1.57
2017-08-18T19:56:29.239Z,0.40
2017-08-18T19:58:56.675Z,0.50
2017-08-18T20:01:24.118Z,0.30
2017-08-18T20:03:52.326Z,2.87
2017-08-18T20:06:19.783Z,0.27
2017-08-18T20:08:47.239Z,0.80
2017-08-18T20:11:14.675Z,0.53
2017-08-18T20:13:42.127Z,0.33
2017-08-18T20:16:09.566Z,1.50
2017-08-18T20:18:37.014Z,0.40
2017-08-18T20:21:04.455Z,0.30
2017-08-18T20:23:32.351Z,0.30
2017-08-18T20:25:59.840Z,1.10
2017-08-18T20:28:27.532Z,0.97
2017-08-18T20:30:54.974Z,0.63
2017-08-18T20:33:22.415Z,1.80
2017-08-18T20:35:49.871Z,0.70
2017-08-18T20:38:17.323Z,0.47
2017-08-18T20:40:44.763Z,0.40
2017-08-18T20:43:12.206Z,0.30
2017-08-18T20:45:40.415Z,0.67
2017-08-18T20:48:07.972Z,0.43
2017-08-18T20:50:35.403Z,0.60
2017-08-18T20:53:02.846Z,0.87
2017-08-18T20:55:31.058Z,0.27
2017-08-18T20:57:58.516Z,0.40
2017-08-18T21:00:25.951Z,0.53
2017-08-18T21:02:53.395Z,0.47
2017-08-18T21:05:20.831Z,0.47
2017-08-18T21:07:49.064Z,0.83
2017-08-18T21:10:16.699Z,0.40
2017-08-18T21:12:44.292Z,0.30
2017-08-18T21:15:12.460Z,0.97
2017-08-18T21:17:39.907Z,0.23
2017-08-18T21:20:07.342Z,0.40
2017-08-18T21:22:34.783Z,0.33
2017-08-18T21:25:02.229Z,0.20
2017-08-18T21:27:30.432Z,0.63
2017-08-18T21:29:57.879Z,0.70
2017-08-18T21:32:25.319Z,0.40
2017-08-18T21:34:53.535Z,0.73
2017-08-18T21:37:20.999Z,0.30
2017-08-18T21:39:48.429Z,0.30
2017-08-18T21:42:15.883Z,0.57
2017-08-18T21:44:43.332Z,0.30
2017-08-18T21:47:10.779Z,2.20
2017-08-18T21:49:38.986Z,0.30
2017-08-18T21:52:06.431Z,0.80
2017-08-18T21:54:33.872Z,0.80
2017-08-18T21:57:01.303Z,2.40
2017-08-18T21:59:29.515Z,1.03
2017-08-18T22:01:56.952Z,2.00
2017-08-18T22:04:24.401Z,0.43
2017-08-18T22:06:52.718Z,0.20
2017-08-18T22:09:20.187Z,1.33
2017-08-18T22:11:47.606Z,0.50
2017-08-18T22:14:15.109Z,1.47
2017-08-18T22:16:42.507Z,0.87
2017-08-18T22:19:10.715Z,0.87
2017-08-18T22:21:38.171Z,2.00
2017-08-18T22:24:05.611Z,0.77
2017-08-18T22:26:33.059Z,0.93
2017-08-18T22:29:00.495Z,1.23
2017-08-18T22:31:28.715Z,0.87
2017-08-18T22:33:56.159Z,1.03
2017-08-18T22:36:23.607Z,1.10
2017-08-18T22:38:51.042Z,1.13
2017-08-18T22:41:19.255Z,1.27
2017-08-18T22:43:46.686Z,1.77
2017-08-18T22:46:14.139Z,1.43
2017-08-18T22:48:41.582Z,1.10
2017-08-18T22:51:09.800Z,0.73
2017-08-18T22:53:37.243Z,1.00
2017-08-18T22:56:05.449Z,0.80
2017-08-18T22:58:33.703Z,0.60
2017-08-18T23:01:01.158Z,1.63
2017-08-18T23:03:28.603Z,1.83
2017-08-18T23:05:56.039Z,0.47
2017-08-18T23:08:23.487Z,0.40
2017-08-18T23:10:51.700Z,1.33
2017-08-18T23:13:19.143Z,0.50
2017-08-18T23:15:46.583Z,0.60
2017-08-18T23:18:14.035Z,1.13
2017-08-18T23:20:42.244Z,0.50
2017-08-18T23:23:09.694Z,0.97
2017-08-18T23:25:37.126Z,0.70
2017-08-18T23:28:04.577Z,0.50
2017-08-18T23:30:32.787Z,0.73
2017-08-18T23:33:00.243Z,1.43
2017-08-18T23:35:27.683Z,1.07
2017-08-18T23:37:55.156Z,2.77
2017-08-18T23:40:22.610Z,0.70
2017-08-18T23:42:50.050Z,0.73
2017-08-18T23:45:17.495Z,0.67
2017-08-18T23:47:44.925Z,0.73
2017-08-18T23:50:13.150Z,0.67
2017-08-18T23:52:40.594Z,0.80
2017-08-18T23:55:08.046Z,0.70
2017-08-18T23:57:35.496Z,0.97
